Time;durP1;ratioP1;P1;durP2;ratioP2;P2;SDS_P1;SDS_P2;PMS_P1;PMS_P2;Temp;Humidity;BMP_temperature;BMP_pressure;BME280_temperature;BME280_humidity;BME280_pressure;Samples;Min_cycle;Max_cycle;Signal;HPM_P1;HPM_P2
2022/04/17 00:00:21;;;;;;;4.45;2.60;;;15.70;39.30;;;;;;5053153;28;20383;-78
2022/04/17 00:02:46;;;;;;;6.88;2.90;;;15.70;38.40;;;;;;5051840;28;20498;-81
2022/04/17 00:05:12;;;;;;;5.18;2.70;;;15.80;38.90;;;;;;5051649;28;20025;-86
2022/04/17 00:07:38;;;;;;;5.15;3.05;;;16.00;39.00;;;;;;5051734;28;20100;-78
2022/04/17 00:10:05;;;;;;;5.35;2.80;;;16.20;39.40;;;;;;5052422;28;20029;-82
2022/04/17 00:12:31;;;;;;;5.28;2.95;;;16.30;38.80;;;;;;5051386;28;20075;-80
2022/04/17 00:15:00;;;;;;;5.30;2.88;;;16.40;38.80;;;;;;5053510;28;20029;-86
2022/04/17 00:17:29;;;;;;;6.32;2.97;;;16.30;38.90;;;;;;5051800;28;20070;-78
2022/04/17 00:20:00;;;;;;;5.70;3.05;;;16.40;38.70;;;;;;5051379;28;20533;-86
2022/04/17 00:22:26;;;;;;;6.45;3.15;;;16.20;39.00;;;;;;5051599;28;20136;-83
2022/04/17 00:24:52;;;;;;;5.10;3.00;;;16.10;39.50;;;;;;5051623;28;20021;-79
2022/04/17 00:27:19;;;;;;;5.88;2.75;;;15.70;39.00;;;;;;5051489;28;20052;-78
2022/04/17 00:29:45;;;;;;;4.57;2.60;;;15.30;38.00;;;;;;5053482;28;20029;-78
2022/04/17 00:32:11;;;;;;;4.43;2.63;;;15.40;38.40;;;;;;5055048;28;20017;-79
2022/04/17 00:34:37;;;;;;;3.70;2.40;;;15.40;38.50;;;;;;5055045;28;20032;-84
2022/04/17 00:37:03;;;;;;;4.57;2.70;;;15.20;38.20;;;;;;5055346;28;20021;-79
2022/04/17 00:39:29;;;;;;;4.50;2.60;;;15.20;37.90;;;;;;5056347;28;20033;-80
2022/04/17 00:41:56;;;;;;;5.40;2.80;;;14.60;38.00;;;;;;5055031;28;20041;-80
2022/04/17 00:44:22;;;;;;;5.57;3.08;;;13.80;39.40;;;;;;5056793;28;20449;-80
2022/04/17 00:46:48;;;;;;;4.43;2.78;;;14.00;39.30;;;;;;5056233;28;20028;-81
2022/04/17 00:49:14;;;;;;;4.75;2.63;;;14.60;39.40;;;;;;5055051;28;20028;-80
2022/04/17 00:51:43;;;;;;;5.00;2.72;;;14.90;39.30;;;;;;5055369;28;20032;-79
2022/04/17 00:54:12;;;;;;;4.43;2.50;;;14.30;38.40;;;;;;5054842;28;20017;-79
2022/04/17 00:56:38;;;;;;;6.13;2.78;;;14.20;40.20;;;;;;5071883;28;20025;-79
2022/04/17 00:59:06;;;;;;;4.88;2.60;;;14.80;39.60;;;;;;5054982;28;20135;-79
2022/04/17 01:01:33;;;;;;;3.97;2.53;;;15.20;39.20;;;;;;5054814;28;20434;-79
2022/04/17 01:03:59;;;;;;;4.55;2.60;;;15.10;39.10;;;;;;5055198;28;20131;-80
2022/04/17 01:06:26;;;;;;;4.82;2.70;;;14.30;38.50;;;;;;5055332;28;20021;-80
2022/04/17 01:08:52;;;;;;;3.70;2.35;;;13.60;38.30;;;;;;5054685;28;20116;-84
2022/04/17 01:11:18;;;;;;;4.43;2.70;;;13.20;40.00;;;;;;5054527;28;20108;-78
2022/04/17 01:13:44;;;;;;;4.30;2.78;;;13.40;40.00;;;;;;5054538;28;20025;-79
2022/04/17 01:16:11;;;;;;;9.13;2.75;;;13.80;39.30;;;;;;5054302;28;20450;-83
2022/04/17 01:19:15;;;;;;;4.68;2.70;;;14.10;40.40;;;;;;5054657;28;20383;-79
2022/04/17 01:21:43;;;;;;;3.83;2.40;;;14.70;39.60;;;;;;5073436;28;20118;-80
2022/04/17 01:26:58;;;;;;;4.30;2.63;;;14.60;39.30;;;;;;5073740;28;20132;-80
2022/04/17 01:29:34;;;;;;;4.72;2.70;;;14.60;39.20;;;;;;5073636;28;20062;-80
2022/04/17 01:32:05;;;;;;;6.40;2.55;;;14.40;38.40;;;;;;5073320;28;20474;-81
2022/04/17 01:34:31;;;;;;;4.68;2.45;;;14.00;38.90;;;;;;5037357;28;20535;-80
2022/04/17 01:36:58;;;;;;;5.70;2.63;;;13.60;39.00;;;;;;5036614;28;20031;-81
2022/04/17 01:39:24;;;;;;;4.53;2.55;;;13.60;39.50;;;;;;5037208;28;20044;-79
2022/04/17 01:41:52;;;;;;;4.60;2.70;;;13.50;39.40;;;;;;5036826;28;20025;-80
2022/04/17 01:44:18;;;;;;;4.47;2.60;;;13.50;40.00;;;;;;5047081;28;20032;-81
2022/04/17 01:46:45;;;;;;;4.60;2.58;;;13.40;39.30;;;;;;5056419;28;20098;-81
2022/04/17 01:49:12;;;;;;;4.85;2.20;;;13.50;39.50;;;;;;5056335;28;20031;-81
2022/04/17 01:51:39;;;;;;;4.53;2.63;;;13.40;39.20;;;;;;5053675;28;20098;-81
2022/04/17 01:54:10;;;;;;;4.95;2.40;;;13.70;39.20;;;;;;5053813;28;20035;-82
2022/04/17 01:56:36;;;;;;;;;;;14.30;39.60;;;;;;5054456;28;20086;-81
2022/04/17 01:59:04;;;;;;;4.60;2.60;;;14.40;38.80;;;;;;5055007;28;19912;-80
2022/04/17 02:01:30;;;;;;;4.10;2.63;;;14.40;39.50;;;;;;5054905;28;20013;-84
2022/04/17 02:03:56;;;;;;;5.32;2.80;;;14.60;40.10;;;;;;5054426;28;20029;-82
2022/04/17 02:06:21;;;;;;;4.25;2.60;;;14.80;39.00;;;;;;5048827;28;20387;-82
2022/04/17 02:08:47;;;;;;;3.70;2.60;;;15.00;39.20;;;;;;5049539;28;20029;-81
2022/04/17 02:11:15;;;;;;;5.20;2.70;;;15.00;39.40;;;;;;5051231;28;20090;-81
2022/04/17 02:13:41;;;;;;;5.55;2.40;;;15.00;38.80;;;;;;5049817;28;20459;-82
2022/04/17 02:16:07;;;;;;;4.35;2.72;;;14.60;38.90;;;;;;5036289;28;20029;-82
2022/04/17 02:18:33;;;;;;;5.90;2.88;;;14.50;40.80;;;;;;5038101;28;20107;-80
2022/04/17 02:20:59;;;;;;;4.78;2.70;;;14.30;40.60;;;;;;5055035;28;20379;-80
2022/04/17 02:23:25;;;;;;;5.22;2.78;;;14.50;40.30;;;;;;5051634;28;20044;-80
2022/04/17 02:25:51;;;;;;;4.90;2.60;;;14.40;41.10;;;;;;5053461;28;20021;-80
2022/04/17 02:28:17;;;;;;;5.70;2.75;;;14.30;40.80;;;;;;5052944;28;20356;-81
2022/04/17 02:30:43;;;;;;;5.03;2.80;;;14.20;40.90;;;;;;5053673;28;20528;-81
2022/04/17 02:33:08;;;;;;;5.85;2.60;;;13.90;40.90;;;;;;5069508;28;20021;-80
2022/04/17 02:35:34;;;;;;;6.65;2.80;;;13.80;41.20;;;;;;5049738;28;20464;-81
2022/04/17 02:38:00;;;;;;;4.70;2.75;;;13.80;41.70;;;;;;5043446;28;20491;-82
2022/04/17 02:40:26;;;;;;;4.28;2.70;;;13.80;41.80;;;;;;5034863;28;20495;-81
2022/04/17 02:42:55;;;;;;;4.60;2.70;;;13.70;42.00;;;;;;5052118;28;20050;-81
2022/04/17 02:45:20;;;;;;;3.83;2.63;;;13.50;42.40;;;;;;5066925;28;20021;-86
2022/04/17 02:47:48;;;;;;;4.93;3.13;;;13.40;42.90;;;;;;5052335;28;20028;-86
2022/04/17 02:50:16;;;;;;;4.57;2.83;;;13.60;42.80;;;;;;5053043;28;20032;-86
2022/04/17 02:52:42;;;;;;;4.78;2.83;;;13.40;43.50;;;;;;5052228;28;20083;-80
2022/04/17 02:55:09;;;;;;;5.20;2.92;;;13.50;43.60;;;;;;5051634;28;20025;-80
2022/04/17 02:57:35;;;;;;;4.97;2.97;;;13.40;44.30;;;;;;5052917;28;20029;-82
2022/04/17 03:00:01;;;;;;;4.70;3.08;;;13.40;44.20;;;;;;5069753;28;20017;-83
2022/04/17 03:07:57;;;;;;;5.38;3.10;;;13.50;45.10;;;;;;5054023;28;20028;-81
2022/04/17 03:10:23;;;;;;;5.07;2.85;;;13.10;44.60;;;;;;5052831;28;20021;-85
2022/04/17 03:12:49;;;;;;;6.10;3.00;;;13.10;45.00;;;;;;5052709;28;20039;-84
2022/04/17 03:15:14;;;;;;;4.82;3.05;;;13.10;45.80;;;;;;5052422;28;20471;-80
2022/04/17 03:17:40;;;;;;;5.55;3.00;;;12.60;46.90;;;;;;5052789;28;20078;-81
2022/04/17 03:20:07;;;;;;;4.60;2.88;;;12.40;47.60;;;;;;5052338;28;20120;-84
2022/04/17 03:22:33;;;;;;;4.05;2.60;;;11.90;46.70;;;;;;5052558;28;20102;-81
2022/04/17 03:25:06;;;;;;;5.32;3.00;;;11.90;47.40;;;;;;5052845;28;20029;-86
2022/04/17 03:27:32;;;;;;;6.20;3.15;;;11.50;49.00;;;;;;5054141;28;20021;-81
2022/04/17 03:29:58;;;;;;;7.53;3.35;;;11.30;47.90;;;;;;5053595;28;20131;-81
2022/04/17 03:32:24;;;;;;;6.50;3.15;;;11.20;48.00;;;;;;5051918;28;20115;-81
2022/04/17 03:34:52;;;;;;;5.93;2.90;;;11.60;48.10;;;;;;5068300;28;20116;-81
2022/04/17 03:37:18;;;;;;;4.90;3.33;;;11.60;47.40;;;;;;5034025;28;20104;-85
2022/04/17 03:39:48;;;;;;;4.20;2.95;;;11.50;47.60;;;;;;5036349;28;20111;-85
2022/04/17 03:42:15;;;;;;;6.53;3.28;;;11.50;47.90;;;;;;5052927;28;20045;-81
2022/04/17 03:44:41;;;;;;;6.55;3.50;;;11.40;48.20;;;;;;5052785;28;20083;-82
2022/04/17 03:47:07;;;;;;;5.28;3.10;;;11.10;49.00;;;;;;5032458;28;20033;-84
2022/04/17 03:49:33;;;;;;;6.82;3.60;;;10.80;49.20;;;;;;5048433;28;20037;-84
2022/04/17 03:52:02;;;;;;;5.93;3.50;;;11.00;49.60;;;;;;5068468;28;20035;-82
2022/04/17 03:54:27;;;;;;;7.03;3.60;;;11.20;49.00;;;;;;5051082;28;20033;-80
2022/04/17 03:56:53;;;;;;;6.60;3.30;;;11.00;48.80;;;;;;5051264;28;20024;-80
2022/04/17 03:59:19;;;;;;;7.32;3.53;;;10.80;49.20;;;;;;5051534;28;20479;-81
2022/04/17 04:01:48;;;;;;;7.63;3.53;;;10.30;50.30;;;;;;5052747;28;20083;-81
2022/04/17 04:04:15;;;;;;;6.22;3.60;;;10.10;51.10;;;;;;5049478;28;20037;-82
2022/04/17 04:06:41;;;;;;;6.07;3.40;;;10.50;50.70;;;;;;5036215;28;20491;-80
2022/04/17 04:09:07;;;;;;;5.13;3.30;;;10.60;50.70;;;;;;5051994;28;20025;-82
2022/04/17 04:11:32;;;;;;;7.85;3.55;;;10.50;50.20;;;;;;5056354;28;20036;-85
2022/04/17 04:13:58;;;;;;;6.25;3.70;;;10.70;50.10;;;;;;5057388;28;20029;-82
2022/04/17 04:16:24;;;;;;;6.40;3.60;;;10.60;50.20;;;;;;5055714;28;20036;-83
2022/04/17 04:18:49;;;;;;;7.00;4.35;;;10.70;50.20;;;;;;5056991;28;20025;-82
2022/04/17 04:21:15;;;;;;;6.15;3.50;;;10.90;49.60;;;;;;5055492;28;20056;-81
2022/04/17 04:23:41;;;;;;;6.53;4.25;;;10.80;49.40;;;;;;5054431;28;20395;-80
2022/04/17 04:26:07;;;;;;;7.38;3.88;;;11.00;49.40;;;;;;5054672;28;20370;-81
2022/04/17 04:28:33;;;;;;;7.97;3.83;;;11.00;49.80;;;;;;5038451;28;20029;-82
2022/04/17 04:31:19;;;;;;;6.28;3.63;;;11.20;49.30;;;;;;5056671;28;20031;-80
2022/04/17 04:33:45;;;;;;;5.80;3.72;;;11.30;48.90;;;;;;5054900;28;20025;-80
2022/04/17 04:36:11;;;;;;;15.23;7.80;;;11.40;49.30;;;;;;5067400;28;20031;-81
2022/04/17 04:38:39;;;;;;;9.30;5.30;;;11.70;49.20;;;;;;5076608;28;20023;-81
2022/04/17 04:41:05;;;;;;;11.02;5.70;;;11.80;48.60;;;;;;5058550;28;20033;-79
2022/04/17 04:43:31;;;;;;;24.60;12.35;;;11.80;48.60;;;;;;5055548;28;20059;-79
2022/04/17 04:46:06;;;;;;;53.25;24.52;;;11.70;49.10;;;;;;5057156;28;20025;-79
2022/04/17 04:51:21;;;;;;;29.50;16.23;;;11.70;50.00;;;;;;5055672;28;20028;-78
2022/04/17 04:53:48;;;;;;;16.63;9.57;;;12.00;48.70;;;;;;5054187;28;20029;-79
2022/04/17 04:56:13;;;;;;;8.73;5.05;;;12.20;47.80;;;;;;5053752;28;20027;-81
2022/04/17 04:58:40;;;;;;;7.30;4.78;;;12.20;48.30;;;;;;5055637;28;20021;-79
2022/04/17 05:01:06;;;;;;;7.03;4.45;;;12.40;48.00;;;;;;5054783;28;20167;-81
2022/04/17 05:03:31;;;;;;;6.75;3.92;;;12.40;48.60;;;;;;5053700;28;20033;-79
2022/04/17 05:05:57;;;;;;;5.25;3.40;;;12.40;47.80;;;;;;5053711;28;20025;-80
2022/04/17 05:08:23;;;;;;;7.05;4.00;;;12.60;47.40;;;;;;5054408;28;20017;-80
2022/04/17 05:10:49;;;;;;;5.95;3.72;;;12.80;47.50;;;;;;5055364;28;20014;-80
2022/04/17 05:13:15;;;;;;;5.88;3.60;;;12.90;46.90;;;;;;5053969;28;20383;-80
2022/04/17 05:15:41;;;;;;;6.18;3.88;;;13.20;46.70;;;;;;5053554;28;20052;-80
2022/04/17 05:18:07;;;;;;;7.25;4.97;;;13.40;45.60;;;;;;4708405;28;10000170;-78
2022/04/17 05:20:33;;;;;;;5.10;3.03;;;13.50;45.60;;;;;;5072500;28;20024;-79
2022/04/17 05:23:19;;;;;;;4.95;3.00;;;13.60;44.30;;;;;;5056968;28;20535;-81
2022/04/17 05:25:48;;;;;;;6.47;2.90;;;13.70;44.20;;;;;;5052485;28;20021;-80
2022/04/17 05:28:15;;;;;;;6.30;3.10;;;13.70;41.20;;;;;;5054761;28;20037;-80
2022/04/17 05:30:41;;;;;;;5.68;3.03;;;13.70;41.20;;;;;;5061867;28;20384;-81
2022/04/17 05:33:07;;;;;;;4.72;2.80;;;13.70;41.50;;;;;;5053532;28;20085;-80
2022/04/17 05:35:33;;;;;;;5.80;3.20;;;13.10;41.00;;;;;;5053140;28;20115;-80
2022/04/17 05:37:59;;;;;;;7.38;3.60;;;13.30;42.50;;;;;;5054098;28;20391;-78
2022/04/17 05:40:25;;;;;;;5.13;3.60;;;13.60;42.00;;;;;;5069817;28;20021;-82
2022/04/17 05:42:50;;;;;;;6.35;4.07;;;13.90;42.00;;;;;;5073669;28;20044;-81
2022/04/17 05:45:17;;;;;;;7.10;3.95;;;13.00;41.00;;;;;;5072975;28;20226;-81
2022/04/17 05:47:43;;;;;;;7.57;4.25;;;13.00;42.90;;;;;;5058232;28;20024;-81
2022/04/17 05:50:09;;;;;;;6.22;3.70;;;13.30;42.20;;;;;;5056828;28;20116;-80
2022/04/17 05:52:35;;;;;;;7.00;3.92;;;13.10;41.60;;;;;;5052033;28;20396;-78
2022/04/17 05:55:01;;;;;;;5.43;3.50;;;12.60;41.90;;;;;;5051209;28;20029;-79
2022/04/17 05:57:29;;;;;;;5.22;3.00;;;12.10;42.30;;;;;;5051718;28;20036;-79
2022/04/17 05:59:54;;;;;;;5.15;2.92;;;12.60;42.40;;;;;;5051576;28;20552;-78
2022/04/17 06:02:20;;;;;;;5.65;3.10;;;13.00;41.50;;;;;;5054943;28;20029;-83
2022/04/17 06:04:47;;;;;;;5.05;3.10;;;13.10;39.70;;;;;;5039360;28;20519;-80
2022/04/17 06:07:23;;;;;;;5.30;2.88;;;12.50;40.20;;;;;;5055739;28;20471;-79
2022/04/17 06:09:49;;;;;;;4.70;2.80;;;12.80;39.50;;;;;;5053212;28;20033;-79
2022/04/17 06:12:14;;;;;;;5.25;3.10;;;13.00;39.80;;;;;;5052539;28;20075;-78
2022/04/17 06:14:40;;;;;;;4.40;2.70;;;13.30;40.00;;;;;;5068310;28;20032;-81
2022/04/17 06:17:06;;;;;;;3.83;2.55;;;13.30;38.70;;;;;;5051981;28;20029;-81
2022/04/17 06:19:31;;;;;;;4.30;2.83;;;13.50;39.80;;;;;;5053489;28;20090;-81
2022/04/17 06:21:57;;;;;;;4.38;2.70;;;13.50;39.20;;;;;;5052167;28;20025;-80
2022/04/17 06:24:26;;;;;;;4.70;2.80;;;13.20;39.60;;;;;;5057348;28;20044;-80
2022/04/17 06:26:52;;;;;;;4.53;2.80;;;13.60;39.50;;;;;;5046242;28;20527;-77
2022/04/17 06:29:17;;;;;;;5.22;3.03;;;12.50;39.30;;;;;;5045657;28;20479;-80
2022/04/17 06:31:45;;;;;;;5.00;3.10;;;12.60;39.90;;;;;;5056239;28;20016;-78
2022/04/17 06:34:12;;;;;;;4.60;3.10;;;12.40;39.50;;;;;;5038607;28;20025;-84
2022/04/17 06:36:39;;;;;;;5.78;2.95;;;12.90;40.10;;;;;;5052717;28;20053;-83
2022/04/17 06:39:05;;;;;;;4.75;2.53;;;13.40;39.50;;;;;;5054807;28;20469;-84
2022/04/17 06:41:31;;;;;;;5.28;3.05;;;14.20;39.30;;;;;;5045159;28;20025;-83
2022/04/17 06:43:57;;;;;;;5.90;3.08;;;14.30;37.30;;;;;;5052566;28;20132;-79
2022/04/17 06:46:23;;;;;;;5.25;2.60;;;13.50;40.20;;;;;;5054025;28;20089;-83
2022/04/17 06:48:49;;;;;;;4.53;2.67;;;13.30;38.80;;;;;;5052525;28;20112;-83
2022/04/17 06:51:15;;;;;;;4.95;2.67;;;13.40;39.50;;;;;;5052473;28;20430;-79
2022/04/17 06:53:41;;;;;;;4.68;2.80;;;14.10;38.20;;;;;;5052799;28;20244;-82
2022/04/17 06:56:08;;;;;;;4.40;2.50;;;14.60;37.10;;;;;;5053064;28;20043;-85
2022/04/17 06:58:33;;;;;;;4.25;2.58;;;15.10;37.70;;;;;;5051949;28;20486;-80
2022/04/17 07:00:59;;;;;;;4.22;2.63;;;15.70;37.00;;;;;;5050197;28;20017;-79
2022/04/17 07:03:25;;;;;;;6.85;2.72;;;17.10;35.60;;;;;;5051391;28;20391;-79
2022/04/17 07:05:51;;;;;;;4.05;2.45;;;17.60;34.90;;;;;;5050499;28;20106;-82
2022/04/17 07:08:16;;;;;;;4.78;2.60;;;18.60;33.80;;;;;;5050247;28;20111;-83
2022/04/17 07:10:42;;;;;;;4.13;2.60;;;19.00;33.50;;;;;;5051494;28;20031;-80
2022/04/17 07:13:15;;;;;;;5.05;2.88;;;19.20;32.90;;;;;;5051665;28;20032;-83
2022/04/17 07:15:41;;;;;;;4.35;2.55;;;19.40;33.00;;;;;;5052357;28;20099;-80
2022/04/17 07:18:06;;;;;;;4.00;2.40;;;19.10;32.90;;;;;;5053149;28;20025;-81
2022/04/17 07:20:32;;;;;;;4.63;2.65;;;19.10;33.20;;;;;;5052367;28;20035;-79
2022/04/17 07:23:00;;;;;;;4.85;2.55;;;19.10;33.60;;;;;;5052173;28;20037;-83
2022/04/17 07:25:26;;;;;;;4.35;2.60;;;19.20;33.90;;;;;;5052219;28;20025;-83
2022/04/17 07:27:53;;;;;;;3.38;2.38;;;19.50;32.60;;;;;;5053132;28;20025;-81
2022/04/17 07:30:26;;;;;;;4.45;2.40;;;19.60;33.00;;;;;;5052472;28;20036;-83
2022/04/17 07:32:58;;;;;;;4.25;2.20;;;19.60;32.90;;;;;;5053042;28;20021;-79
2022/04/17 07:35:25;;;;;;;3.83;2.40;;;20.00;32.50;;;;;;5053116;28;20032;-84
2022/04/17 07:38:04;;;;;;;4.07;2.40;;;20.40;32.60;;;;;;5053051;28;20029;-81
2022/04/17 07:40:33;;;;;;;12.05;2.72;;;19.70;32.20;;;;;;5051634;28;20056;-84
2022/04/17 07:43:00;;;;;;;4.30;2.17;;;18.10;32.90;;;;;;5052364;28;20074;-79
2022/04/17 07:45:27;;;;;;;3.58;2.20;;;17.70;34.50;;;;;;5051368;28;20053;-87
2022/04/17 07:47:53;;;;;;;3.53;2.10;;;18.90;34.40;;;;;;5051754;28;20025;-82
2022/04/17 07:50:24;;;;;;;3.97;2.20;;;19.60;32.70;;;;;;5053152;28;20032;-84
2022/04/17 07:52:50;;;;;;;4.50;2.80;;;19.80;32.80;;;;;;5051723;28;20068;-81
2022/04/17 07:55:17;;;;;;;5.15;2.45;;;19.60;33.10;;;;;;5051809;28;20110;-80
2022/04/17 08:00:46;;;;;;;3.42;2.26;;;18.70;34.30;;;;;;4703573;28;10000715;-82
2022/04/17 08:05:57;;;;;;;3.60;2.20;;;19.30;34.60;;;;;;5053266;28;20453;-80
2022/04/17 08:08:23;;;;;;;4.07;2.50;;;20.70;32.60;;;;;;5053006;28;20546;-82
2022/04/17 08:10:49;;;;;;;4.95;2.30;;;21.50;32.10;;;;;;5051597;28;20456;-80
2022/04/17 08:13:16;;;;;;;39.38;7.50;;;21.60;32.30;;;;;;5051636;28;20123;-82
2022/04/17 08:15:42;;;;;;;5.05;2.50;;;21.80;31.30;;;;;;5051583;28;20056;-83
2022/04/17 08:18:08;;;;;;;4.25;2.40;;;22.00;31.80;;;;;;5052528;28;20060;-81
2022/04/17 08:20:34;;;;;;;13.50;4.15;;;23.10;30.50;;;;;;5051796;28;20028;-84
2022/04/17 08:23:00;;;;;;;4.30;2.30;;;23.10;31.40;;;;;;5051727;28;20037;-81
2022/04/17 08:25:26;;;;;;;6.32;2.60;;;22.30;30.80;;;;;;5051782;28;20032;-82
2022/04/17 08:27:53;;;;;;;5.22;2.25;;;21.40;32.10;;;;;;5051214;28;20025;-82
2022/04/17 08:30:25;;;;;;;3.88;2.08;;;20.70;31.10;;;;;;5051561;28;20411;-82
2022/04/17 08:32:51;;;;;;;3.85;2.00;;;20.30;32.20;;;;;;5051464;28;20083;-81
2022/04/17 08:35:17;;;;;;;3.00;1.92;;;20.10;31.80;;;;;;5051485;28;20113;-80
2022/04/17 08:37:46;;;;;;;4.32;2.30;;;20.60;30.80;;;;;;5052115;28;20021;-81
2022/04/17 08:40:13;;;;;;;3.33;2.10;;;21.50;31.90;;;;;;5052734;28;20025;-81
2022/04/17 08:42:39;;;;;;;3.17;2.03;;;22.40;31.70;;;;;;5052544;28;20060;-85
2022/04/17 08:45:11;;;;;;;3.33;2.00;;;22.20;30.70;;;;;;5051378;28;20021;-82
2022/04/17 08:47:39;;;;;;;3.53;2.10;;;21.30;31.50;;;;;;5051351;28;20025;-83
2022/04/17 08:50:17;;;;;;;3.90;2.13;;;21.00;31.40;;;;;;5052384;28;20081;-83
2022/04/17 08:52:46;;;;;;;3.30;2.03;;;20.70;31.40;;;;;;5055015;28;20159;-82
2022/04/17 08:55:12;;;;;;;3.85;2.38;;;19.90;33.20;;;;;;5054854;28;20111;-79
2022/04/17 08:57:38;;;;;;;4.22;2.20;;;20.00;33.10;;;;;;5056006;28;20036;-83
2022/04/17 09:00:08;;;;;;;6.28;2.55;;;20.60;32.80;;;;;;5055204;28;20025;-81
2022/04/17 09:02:34;;;;;;;4.30;2.20;;;20.70;33.40;;;;;;5055602;28;20043;-84
2022/04/17 09:05:13;;;;;;;4.60;2.38;;;20.90;32.50;;;;;;5054435;28;20017;-81
2022/04/17 09:07:49;;;;;;;4.95;2.67;;;20.90;31.70;;;;;;5054660;28;20021;-80
2022/04/17 09:10:25;;;;;;;3.45;2.10;;;21.20;33.10;;;;;;5054524;28;20025;-82
2022/04/17 09:12:54;;;;;;;3.72;2.25;;;22.30;33.40;;;;;;5054358;28;20021;-86
2022/04/17 09:15:26;;;;;;;4.70;2.38;;;23.20;31.60;;;;;;5055905;28;20028;-82
2022/04/17 09:17:52;;;;;;;4.40;2.08;;;22.90;31.20;;;;;;5054295;28;20025;-82
2022/04/17 09:20:19;;;;;;;3.67;2.20;;;22.40;32.00;;;;;;5054536;28;20112;-80
2022/04/17 09:22:53;;;;;;;3.25;2.20;;;22.20;31.80;;;;;;5054517;28;20083;-83
2022/04/17 09:25:22;;;;;;;3.78;2.08;;;23.20;31.00;;;;;;5055710;28;20021;-82
2022/04/17 09:28:14;;;;;;;3.47;2.10;;;24.70;30.60;;;;;;5054192;28;20029;-82
2022/04/17 09:30:47;;;;;;;3.63;2.20;;;26.10;29.00;;;;;;5055030;28;20099;-81
2022/04/17 09:33:14;;;;;;;3.55;2.10;;;25.60;30.00;;;;;;5055630;28;20021;-82
2022/04/17 09:35:41;;;;;;;3.47;2.10;;;24.90;30.40;;;;;;5055223;28;20114;-83
2022/04/17 09:38:08;;;;;;;3.63;2.03;;;25.00;30.10;;;;;;5054048;28;20021;-82
2022/04/17 09:40:37;;;;;;;3.33;2.15;;;25.90;30.50;;;;;;5053729;28;20029;-82
2022/04/17 09:43:09;;;;;;;3.47;1.95;;;27.30;30.00;;;;;;5053972;28;20041;-81
2022/04/17 09:46:04;;;;;;;3.50;2.20;;;27.10;29.20;;;;;;5053849;28;20458;-82
2022/04/17 09:48:32;;;;;;;4.25;2.00;;;26.30;29.20;;;;;;5038734;28;20502;-81
2022/04/17 09:50:59;;;;;;;3.80;2.13;;;24.70;29.80;;;;;;5053628;28;20586;-82
2022/04/17 09:53:32;;;;;;;4.47;1.88;;;23.60;30.30;;;;;;5055171;28;20472;-82
2022/04/17 09:56:11;;;;;;;4.80;2.05;;;23.30;29.90;;;;;;5055162;28;20405;-84
2022/04/17 09:58:42;;;;;;;3.55;2.15;;;23.20;30.00;;;;;;5053741;28;20056;-81
2022/04/17 10:01:08;;;;;;;3.80;2.30;;;24.90;30.10;;;;;;5054821;28;20410;-81
2022/04/17 10:03:39;;;;;;;6.40;1.90;;;25.70;29.40;;;;;;5053614;28;20069;-81
2022/04/17 10:06:06;;;;;;;;;;;25.20;29.10;;;;;;5055285;28;20013;-79
2022/04/17 10:08:33;;;;;;;3.33;1.98;;;24.90;29.50;;;;;;5053609;28;19944;-83
2022/04/17 10:11:00;;;;;;;3.60;1.85;;;25.10;29.40;;;;;;5054511;28;20537;-82
2022/04/17 10:13:27;;;;;;;3.58;2.00;;;24.00;29.90;;;;;;5054646;28;20427;-82
2022/04/17 10:15:58;;;;;;;3.35;2.05;;;24.10;30.70;;;;;;5053632;28;20029;-87
2022/04/17 10:18:27;;;;;;;3.42;1.90;;;26.10;29.30;;;;;;5054450;28;20024;-83
2022/04/17 10:20:55;;;;;;;3.10;1.90;;;25.20;28.20;;;;;;5053652;28;20435;-82
2022/04/17 10:23:24;;;;;;;3.90;2.30;;;25.00;29.30;;;;;;5053148;28;20040;-85
2022/04/17 10:25:51;;;;;;;3.92;2.10;;;25.30;28.80;;;;;;5053477;28;20452;-84
2022/04/17 10:28:20;;;;;;;3.45;2.00;;;23.30;28.70;;;;;;5053240;28;20020;-82
2022/04/17 10:31:09;;;;;;;5.13;1.90;;;22.60;30.20;;;;;;5053776;28;20384;-82
2022/04/17 10:34:10;;;;;;;4.90;2.10;;;23.60;30.50;;;;;;5052520;28;20079;-81
2022/04/17 10:36:38;;;;;;;;;;;25.20;29.20;;;;;;5049083;28;20033;-82
2022/04/17 10:39:06;;;;;;;4.72;2.10;;;25.60;28.90;;;;;;5053022;28;20275;-81
2022/04/17 10:41:32;;;;;;;3.50;1.90;;;24.20;29.20;;;;;;5052724;28;20464;-83
2022/04/17 10:43:59;;;;;;;3.50;2.00;;;24.40;30.20;;;;;;5052565;28;20056;-81
2022/04/17 10:46:25;;;;;;;3.30;1.92;;;23.90;29.20;;;;;;5052815;28;20467;-81
2022/04/17 10:48:57;;;;;;;4.60;1.90;;;24.60;30.00;;;;;;5052609;28;20128;-82
2022/04/17 10:51:30;;;;;;;3.15;1.75;;;25.00;29.30;;;;;;5053802;28;20017;-82
2022/04/17 10:54:04;;;;;;;4.00;1.70;;;26.00;28.90;;;;;;5052533;28;20033;-81
2022/04/17 10:56:36;;;;;;;3.67;1.98;;;26.70;29.50;;;;;;5053875;28;20020;-82
2022/04/17 10:59:06;;;;;;;3.40;1.90;;;25.90;28.40;;;;;;5053231;28;20472;-81
2022/04/17 11:01:46;;;;;;;3.38;2.00;;;24.40;28.80;;;;;;5052264;28;20107;-81
2022/04/17 11:04:30;;;;;;;3.53;1.90;;;22.50;31.80;;;;;;5052370;28;20075;-80
2022/04/17 11:07:05;;;;;;;3.20;1.90;;;21.40;32.80;;;;;;5052594;28;20028;-80
2022/04/17 11:09:36;;;;;;;3.38;1.80;;;20.90;30.00;;;;;;5052647;28;20024;-83
2022/04/17 11:12:18;;;;;;;3.97;1.98;;;20.20;31.40;;;;;;5053449;28;20021;-82
2022/04/17 11:15:01;;;;;;;5.00;1.92;;;19.40;31.40;;;;;;5052172;28;20028;-82
2022/04/17 11:17:31;;;;;;;5.00;2.08;;;19.00;33.00;;;;;;5053762;28;20434;-80
2022/04/17 11:19:58;;;;;;;5.07;2.13;;;19.00;31.80;;;;;;5052121;28;20056;-89
2022/04/17 11:22:32;;;;;;;3.70;2.00;;;19.40;33.20;;;;;;5053107;28;20380;-84
2022/04/17 11:24:58;;;;;;;4.00;2.40;;;19.70;32.70;;;;;;5052140;28;20120;-81
2022/04/17 11:27:41;;;;;;;3.47;2.15;;;19.40;30.90;;;;;;5052425;28;20175;-82
2022/04/17 11:30:31;;;;;;;4.60;2.30;;;17.90;31.70;;;;;;5052204;28;20025;-81
2022/04/17 11:33:00;;;;;;;4.20;1.90;;;17.60;32.50;;;;;;5050059;28;20029;-80
2022/04/17 11:35:27;;;;;;;4.60;2.10;;;17.90;34.00;;;;;;5052205;28;20442;-84
2022/04/17 11:37:54;;;;;;;4.20;2.00;;;17.80;33.20;;;;;;5053269;28;20047;-85
2022/04/17 11:40:22;;;;;;;3.50;2.00;;;18.00;34.30;;;;;;5053021;28;20028;-80
2022/04/17 11:42:49;;;;;;;3.53;2.10;;;18.10;33.20;;;;;;5052844;28;20052;-82
2022/04/17 11:45:20;;;;;;;3.22;2.05;;;18.70;33.50;;;;;;5051914;28;20021;-80
2022/04/17 11:47:47;;;;;;;3.65;2.00;;;18.40;32.00;;;;;;5052414;28;20056;-81
2022/04/17 11:50:20;;;;;;;3.72;2.03;;;18.80;33.30;;;;;;5052053;28;20025;-83
2022/04/17 11:52:50;;;;;;;3.65;1.98;;;19.10;33.60;;;;;;5053253;28;20021;-83
2022/04/17 11:55:19;;;;;;;5.18;2.15;;;19.10;33.00;;;;;;5051692;28;20262;-83
2022/04/17 11:57:45;;;;;;;3.90;2.10;;;18.90;31.80;;;;;;5052092;28;20021;-83
2022/04/17 12:00:12;;;;;;;3.17;1.80;;;18.50;34.80;;;;;;5053329;28;20387;-82
2022/04/17 12:02:38;;;;;;;3.50;1.92;;;18.50;34.30;;;;;;5053055;28;20033;-80
2022/04/17 12:05:10;;;;;;;3.13;1.80;;;18.90;31.20;;;;;;5051883;28;20086;-81
2022/04/17 12:07:36;;;;;;;7.55;2.15;;;19.30;32.70;;;;;;5051390;28;20430;-82
2022/04/17 12:10:13;;;;;;;3.25;1.90;;;19.40;31.90;;;;;;5051962;28;20029;-81
2022/04/17 12:12:45;;;;;;;3.53;2.00;;;19.30;31.60;;;;;;5051911;28;20017;-84
2022/04/17 12:15:12;;;;;;;4.50;2.33;;;19.70;32.70;;;;;;5052964;28;20029;-81
2022/04/17 12:17:39;;;;;;;3.60;2.00;;;19.40;30.60;;;;;;5052848;28;20033;-82
2022/04/17 12:20:13;;;;;;;3.63;2.08;;;18.50;34.10;;;;;;5051713;28;20029;-83
2022/04/17 12:22:40;;;;;;;3.15;1.88;;;18.90;34.00;;;;;;5051332;28;20064;-84
2022/04/17 12:25:20;;;;;;;3.15;2.00;;;19.00;33.00;;;;;;5052675;28;20421;-88
2022/04/17 12:27:49;;;;;;;4.30;2.00;;;19.00;32.80;;;;;;5055536;28;20025;-84
2022/04/17 12:30:20;;;;;;;2.87;1.93;;;18.90;31.60;;;;;;5055764;28;20115;-82
2022/04/17 12:32:47;;;;;;;3.83;1.85;;;19.60;32.60;;;;;;5055657;28;20559;-83
2022/04/17 12:35:24;;;;;;;8.25;2.85;;;20.20;31.60;;;;;;5055413;28;20033;-83
2022/04/17 12:37:50;;;;;;;4.35;2.20;;;20.60;31.20;;;;;;5056672;28;20018;-82
2022/04/17 12:40:21;;;;;;;4.50;1.90;;;20.60;32.10;;;;;;5055303;28;20025;-81
2022/04/17 12:42:47;;;;;;;3.88;2.15;;;20.60;31.30;;;;;;5056229;28;20537;-85
2022/04/17 12:45:26;;;;;;;4.70;2.20;;;20.00;31.90;;;;;;5056722;28;20475;-85
2022/04/17 12:48:06;;;;;;;4.30;2.10;;;18.90;32.00;;;;;;5056546;28;20025;-82
2022/04/17 12:50:32;;;;;;;4.15;1.90;;;18.30;32.50;;;;;;5055111;28;20056;-82
2022/04/17 12:52:59;;;;;;;3.78;2.15;;;18.70;33.20;;;;;;5055002;28;20033;-83
2022/04/17 12:55:35;;;;;;;3.50;1.92;;;19.00;33.20;;;;;;5056370;28;20029;-83
2022/04/17 12:58:04;;;;;;;4.00;2.10;;;19.50;32.90;;;;;;5055233;28;20029;-83
2022/04/17 13:00:30;;;;;;;4.05;2.17;;;19.00;31.90;;;;;;5054685;28;20025;-81
2022/04/17 13:03:13;;;;;;;3.90;2.30;;;18.70;32.90;;;;;;5056156;28;20033;-82
2022/04/17 13:05:39;;;;;;;3.92;2.03;;;18.50;32.60;;;;;;5055126;28;20115;-82
2022/04/17 13:08:06;;;;;;;3.92;1.85;;;18.90;33.00;;;;;;5054817;28;20060;-84
2022/04/17 13:10:33;;;;;;;3.58;2.13;;;18.70;32.60;;;;;;5056274;28;20028;-84